Time;durP1;ratioP1;P1;durP2;ratioP2;P2;SDS_P1;SDS_P2;PMS_P1;PMS_P2;Temp;Humidity;BMP_temperature;BMP_pressure;BME280_temperature;BME280_humidity;BME280_pressure;Samples;Min_cycle;Max_cycle;Signal;HPM_P1;HPM_P2
2023/03/08 00:02:13;;;;;;;0.20;0.20;;;;;;;;;;4995771;28;20305;-64
2023/03/08 00:04:40;;;;;;;0.20;0.20;;;;;;;;;;5006883;28;20278;-64
2023/03/08 00:07:06;;;;;;;0.20;0.20;;;;;;;;;;4995890;28;20641;-64
2023/03/08 00:09:34;;;;;;;0.20;0.20;;;;;;;;;;5006934;28;20522;-64
2023/03/08 00:12:00;;;;;;;0.20;0.20;;;;;;;;;;4995804;28;20247;-64
2023/03/08 00:14:26;;;;;;;0.20;0.20;;;;;;;;;;5006501;28;20294;-64
2023/03/08 00:16:53;;;;;;;0.20;0.20;;;;;;;;;;4995766;28;20241;-64
2023/03/08 00:19:19;;;;;;;0.20;0.20;;;;;;;;;;5006269;28;20281;-64
2023/03/08 00:21:46;;;;;;;0.20;0.20;;;;;;;;;;4995685;28;20259;-64
2023/03/08 00:24:15;;;;;;;0.20;0.20;;;;;;;;;;5006346;28;20203;-64
2023/03/08 00:26:43;;;;;;;0.20;0.20;;;;;;;;;;4995703;28;20294;-64
2023/03/08 00:29:09;;;;;;;0.20;0.20;;;;;;;;;;5006262;28;20446;-64
2023/03/08 00:31:35;;;;;;;0.20;0.20;;;;;;;;;;4995668;28;20254;-64
2023/03/08 00:34:02;;;;;;;0.20;0.20;;;;;;;;;;5005800;28;20294;-64
2023/03/08 00:36:28;;;;;;;0.20;0.20;;;;;;;;;;4995653;28;20478;-64
2023/03/08 00:38:56;;;;;;;0.20;0.20;;;;;;;;;;5005900;28;20246;-64
2023/03/08 00:41:22;;;;;;;0.20;0.20;;;;;;;;;;4995743;28;20617;-64
2023/03/08 00:43:50;;;;;;;0.20;0.20;;;;;;;;;;5005620;28;20210;-64
2023/03/08 00:46:16;;;;;;;0.20;0.20;;;;;;;;;;4995589;28;20523;-64
2023/03/08 00:48:43;;;;;;;0.20;0.20;;;;;;;;;;5005550;28;20234;-64
2023/03/08 00:51:12;;;;;;;0.20;0.20;;;;;;;;;;4995542;28;20314;-63
2023/03/08 00:53:38;;;;;;;0.20;0.20;;;;;;;;;;5005192;28;20294;-64
2023/03/08 00:56:05;;;;;;;0.20;0.20;;;;;;;;;;4995076;28;20269;-64
2023/03/08 00:58:31;;;;;;;0.20;0.20;;;;;;;;;;5005553;28;20239;-64
2023/03/08 01:00:59;;;;;;;0.20;0.20;;;;;;;;;;4995630;28;20243;-64
2023/03/08 01:03:26;;;;;;;0.20;0.20;;;;;;;;;;5005243;28;20296;-64
2023/03/08 01:05:53;;;;;;;0.20;0.20;;;;;;;;;;4995556;28;20244;-64
2023/03/08 01:08:20;;;;;;;0.20;0.20;;;;;;;;;;5004920;28;20273;-64
2023/03/08 01:10:47;;;;;;;0.20;0.20;;;;;;;;;;4995197;28;20265;-64
2023/03/08 01:13:13;;;;;;;0.20;0.20;;;;;;;;;;5004784;28;20255;-64
2023/03/08 01:15:40;;;;;;;0.20;0.20;;;;;;;;;;4995470;28;20437;-64
2023/03/08 01:18:07;;;;;;;0.30;0.30;;;;;;;;;;5004405;28;20207;-63
2023/03/08 01:20:34;;;;;;;0.30;0.30;;;;;;;;;;4995271;28;20261;-64
2023/03/08 01:23:00;;;;;;;0.20;0.20;;;;;;;;;;5004717;28;20439;-64
2023/03/08 01:25:27;;;;;;;0.30;0.30;;;;;;;;;;4995452;28;20273;-64
2023/03/08 01:27:53;;;;;;;0.30;0.30;;;;;;;;;;5004683;28;20503;-63
2023/03/08 01:30:20;;;;;;;0.23;0.23;;;;;;;;;;4995550;28;20390;-64
2023/03/08 01:32:46;;;;;;;0.20;0.20;;;;;;;;;;5004045;28;20225;-64
2023/03/08 01:35:14;;;;;;;0.30;0.30;;;;;;;;;;4995471;28;20475;-64
2023/03/08 01:37:40;;;;;;;0.57;0.57;;;;;;;;;;5004357;28;20262;-64
2023/03/08 01:40:07;;;;;;;0.20;0.20;;;;;;;;;;5005144;28;20208;-64
2023/03/08 01:42:34;;;;;;;0.20;0.20;;;;;;;;;;4994107;28;20254;-64
2023/03/08 01:45:02;;;;;;;0.20;0.20;;;;;;;;;;5004764;28;20278;-64
2023/03/08 01:47:29;;;;;;;0.97;0.97;;;;;;;;;;4994065;28;20254;-64
2023/03/08 01:49:57;;;;;;;0.20;0.20;;;;;;;;;;5005144;28;20363;-64
2023/03/08 01:52:27;;;;;;;0.20;0.20;;;;;;;;;;4993957;28;20271;-64
2023/03/08 01:54:54;;;;;;;0.20;0.20;;;;;;;;;;5004693;28;20309;-64
2023/03/08 01:57:23;;;;;;;0.20;0.20;;;;;;;;;;4993680;28;20265;-64
2023/03/08 01:59:50;;;;;;;0.40;0.40;;;;;;;;;;5004747;28;20237;-64
2023/03/08 02:02:18;;;;;;;0.20;0.20;;;;;;;;;;4993090;28;20308;-64
2023/03/08 02:04:44;;;;;;;0.20;0.20;;;;;;;;;;5004885;28;20443;-64
2023/03/08 02:07:11;;;;;;;0.20;0.20;;;;;;;;;;4993743;28;20306;-63
2023/03/08 02:09:38;;;;;;;0.20;0.20;;;;;;;;;;5004832;28;20234;-63
2023/03/08 02:12:08;;;;;;;0.20;0.20;;;;;;;;;;4993569;28;20443;-63
2023/03/08 02:14:35;;;;;;;0.20;0.20;;;;;;;;;;5004566;28;20294;-63
2023/03/08 02:17:01;;;;;;;0.30;0.30;;;;;;;;;;4993521;28;20274;-64
2023/03/08 02:19:32;;;;;;;0.20;0.20;;;;;;;;;;5004530;28;20393;-64
2023/03/08 02:21:58;;;;;;;0.20;0.20;;;;;;;;;;4993443;28;20274;-64
2023/03/08 02:24:26;;;;;;;0.30;0.30;;;;;;;;;;5004393;28;20500;-64
2023/03/08 02:27:01;;;;;;;0.20;0.20;;;;;;;;;;4993426;28;20305;-64
2023/03/08 02:29:27;;;;;;;0.20;0.20;;;;;;;;;;5004529;28;20262;-64
2023/03/08 02:31:54;;;;;;;0.20;0.20;;;;;;;;;;4993321;28;20566;-64
2023/03/08 02:34:20;;;;;;;0.20;0.20;;;;;;;;;;5003881;28;20226;-64
2023/03/08 02:36:47;;;;;;;0.30;0.30;;;;;;;;;;4993479;28;20241;-64
2023/03/08 02:39:13;;;;;;;0.20;0.20;;;;;;;;;;5003811;28;20285;-64
2023/03/08 02:41:41;;;;;;;0.20;0.20;;;;;;;;;;4993420;28;20241;-64
2023/03/08 02:44:07;;;;;;;0.20;0.20;;;;;;;;;;5003951;28;20274;-64
2023/03/08 02:46:34;;;;;;;0.20;0.20;;;;;;;;;;4993426;28;20307;-64
2023/03/08 02:49:00;;;;;;;0.40;0.40;;;;;;;;;;5003587;28;20241;-64
2023/03/08 02:51:27;;;;;;;0.20;0.20;;;;;;;;;;4993313;28;20262;-64
2023/03/08 02:53:53;;;;;;;0.20;0.20;;;;;;;;;;5003255;28;20227;-65
2023/03/08 02:56:20;;;;;;;2.67;2.57;;;;;;;;;;4993247;28;20243;-64
2023/03/08 02:58:47;;;;;;;0.20;0.20;;;;;;;;;;5003373;28;20214;-64
2023/03/08 03:01:14;;;;;;;0.20;0.20;;;;;;;;;;4993619;28;20521;-63
2023/03/08 03:03:41;;;;;;;0.60;0.60;;;;;;;;;;5003598;28;20202;-64
2023/03/08 03:06:12;;;;;;;0.20;0.20;;;;;;;;;;4993617;28;20250;-64
2023/03/08 03:08:39;;;;;;;0.20;0.20;;;;;;;;;;5003571;28;20261;-64
2023/03/08 03:11:10;;;;;;;0.20;0.20;;;;;;;;;;4993671;28;20246;-64
2023/03/08 03:13:36;;;;;;;0.20;0.20;;;;;;;;;;5004625;28;20509;-64
2023/03/08 03:16:07;;;;;;;0.20;0.20;;;;;;;;;;4997581;28;20491;-64
2023/03/08 03:18:33;;;;;;;0.20;0.20;;;;;;;;;;5007073;28;20223;-64
2023/03/08 03:21:02;;;;;;;0.20;0.20;;;;;;;;;;4997442;28;20243;-64
2023/03/08 03:23:29;;;;;;;0.20;0.20;;;;;;;;;;5006864;28;20202;-64
2023/03/08 03:25:55;;;;;;;0.20;0.20;;;;;;;;;;4997508;28;20561;-64
2023/03/08 03:28:21;;;;;;;0.20;0.20;;;;;;;;;;5006968;28;20345;-64
2023/03/08 03:30:48;;;;;;;0.20;0.20;;;;;;;;;;4997401;28;20309;-64
2023/03/08 03:33:15;;;;;;;0.20;0.20;;;;;;;;;;5006807;28;20387;-64
2023/03/08 03:35:42;;;;;;;0.20;0.20;;;;;;;;;;4997298;28;20307;-64
2023/03/08 03:38:08;;;;;;;0.20;0.20;;;;;;;;;;5006390;28;20238;-64
2023/03/08 03:40:35;;;;;;;0.20;0.20;;;;;;;;;;4997150;28;20577;-64
2023/03/08 03:43:01;;;;;;;0.20;0.20;;;;;;;;;;5006574;28;20201;-64
2023/03/08 03:45:27;;;;;;;0.20;0.20;;;;;;;;;;4997381;28;20207;-64
2023/03/08 03:47:54;;;;;;;0.30;0.30;;;;;;;;;;5006144;28;20223;-64
2023/03/08 03:50:22;;;;;;;0.20;0.20;;;;;;;;;;4996963;28;20207;-64
2023/03/08 03:52:48;;;;;;;0.20;0.20;;;;;;;;;;5005873;28;20230;-64
2023/03/08 03:55:14;;;;;;;0.20;0.20;;;;;;;;;;4996753;28;20556;-64
2023/03/08 03:57:41;;;;;;;0.30;0.30;;;;;;;;;;5006019;28;20207;-64
2023/03/08 04:00:08;;;;;;;0.20;0.20;;;;;;;;;;5006937;28;20279;-64
2023/03/08 04:02:34;;;;;;;0.30;0.30;;;;;;;;;;4995860;28;20258;-64
2023/03/08 04:05:01;;;;;;;0.20;0.20;;;;;;;;;;5006887;28;20211;-64
2023/03/08 04:07:29;;;;;;;0.20;0.20;;;;;;;;;;4995779;28;20597;-64
2023/03/08 04:09:55;;;;;;;0.20;0.20;;;;;;;;;;5006655;28;20211;-64
2023/03/08 04:12:21;;;;;;;0.20;0.20;;;;;;;;;;4995592;28;20649;-64
2023/03/08 04:14:48;;;;;;;0.20;0.20;;;;;;;;;;5006431;28;20233;-64
2023/03/08 04:17:14;;;;;;;0.20;0.20;;;;;;;;;;4995489;28;20243;-64
2023/03/08 04:19:40;;;;;;;0.20;0.20;;;;;;;;;;5006377;28;20212;-64
2023/03/08 04:22:07;;;;;;;0.20;0.20;;;;;;;;;;4995294;28;20264;-64
2023/03/08 04:24:35;;;;;;;0.20;0.20;;;;;;;;;;5006000;28;20235;-64
2023/03/08 04:27:01;;;;;;;0.20;0.20;;;;;;;;;;4994866;28;20314;-64
2023/03/08 04:29:27;;;;;;;0.20;0.20;;;;;;;;;;5006452;28;20451;-64
2023/03/08 04:31:58;;;;;;;0.20;0.20;;;;;;;;;;4995453;28;20272;-64
2023/03/08 04:34:25;;;;;;;0.20;0.20;;;;;;;;;;5006342;28;20526;-64
2023/03/08 04:36:51;;;;;;;0.20;0.20;;;;;;;;;;4995308;28;20306;-64
2023/03/08 04:39:17;;;;;;;0.20;0.20;;;;;;;;;;5005836;28;20274;-64
2023/03/08 04:41:45;;;;;;;0.20;0.20;;;;;;;;;;4995432;28;20257;-64
2023/03/08 04:44:11;;;;;;;0.20;0.20;;;;;;;;;;5005651;28;20223;-64
2023/03/08 04:46:38;;;;;;;0.20;0.20;;;;;;;;;;4995360;28;20570;-64
2023/03/08 04:49:05;;;;;;;0.20;0.20;;;;;;;;;;5005731;28;20439;-64
2023/03/08 04:51:31;;;;;;;0.20;0.20;;;;;;;;;;4995242;28;20448;-64
2023/03/08 04:53:57;;;;;;;0.20;0.20;;;;;;;;;;5005463;28;20751;-64
2023/03/08 04:56:24;;;;;;;0.20;0.20;;;;;;;;;;4995012;28;20245;-64
2023/03/08 04:58:51;;;;;;;0.20;0.20;;;;;;;;;;5005209;28;20212;-64
2023/03/08 05:01:19;;;;;;;0.20;0.20;;;;;;;;;;4994882;28;20243;-64
2023/03/08 05:03:48;;;;;;;0.20;0.20;;;;;;;;;;5004997;28;20244;-64
2023/03/08 05:06:15;;;;;;;0.20;0.20;;;;;;;;;;4995092;28;20244;-64
2023/03/08 05:08:41;;;;;;;0.20;0.20;;;;;;;;;;5004893;28;20208;-64
2023/03/08 05:11:08;;;;;;;0.20;0.20;;;;;;;;;;4995308;28;20508;-64
2023/03/08 05:13:35;;;;;;;0.20;0.20;;;;;;;;;;5005220;28;20457;-64
2023/03/08 05:16:03;;;;;;;0.20;0.20;;;;;;;;;;4995478;28;20608;-64
2023/03/08 05:18:30;;;;;;;0.20;0.20;;;;;;;;;;5005075;28;20509;-64
2023/03/08 05:20:57;;;;;;;0.20;0.20;;;;;;;;;;4995343;28;20271;-64
2023/03/08 05:23:24;;;;;;;0.20;0.20;;;;;;;;;;5004668;28;20206;-64
2023/03/08 05:25:53;;;;;;;0.20;0.20;;;;;;;;;;4995197;28;20244;-64
2023/03/08 05:28:20;;;;;;;0.20;0.20;;;;;;;;;;5004506;28;20215;-64
2023/03/08 05:30:46;;;;;;;0.20;0.20;;;;;;;;;;4995302;28;20243;-64
2023/03/08 05:33:14;;;;;;;0.20;0.20;;;;;;;;;;5004500;28;20238;-64
2023/03/08 05:35:40;;;;;;;0.20;0.20;;;;;;;;;;4994920;28;20242;-64
2023/03/08 05:38:07;;;;;;;0.20;0.20;;;;;;;;;;5003174;28;20273;-64
2023/03/08 05:40:33;;;;;;;0.20;0.20;;;;;;;;;;4995107;28;20348;-64
2023/03/08 05:43:00;;;;;;;0.20;0.20;;;;;;;;;;5004090;28;20218;-64
2023/03/08 05:45:26;;;;;;;0.23;0.23;;;;;;;;;;4995057;28;20203;-64
2023/03/08 05:47:52;;;;;;;0.20;0.20;;;;;;;;;;5003867;28;20269;-64
2023/03/08 05:50:20;;;;;;;0.20;0.20;;;;;;;;;;4995151;28;20416;-64
2023/03/08 05:52:46;;;;;;;0.20;0.20;;;;;;;;;;5003803;28;20202;-64
2023/03/08 05:55:13;;;;;;;0.20;0.20;;;;;;;;;;4995855;28;20267;-64
2023/03/08 05:57:39;;;;;;;0.20;0.20;;;;;;;;;;5003546;28;20242;-64
2023/03/08 06:00:06;;;;;;;0.20;0.20;;;;;;;;;;5004659;28;20246;-65
2023/03/08 06:02:32;;;;;;;0.20;0.20;;;;;;;;;;4993469;28;20241;-66
2023/03/08 06:04:59;;;;;;;0.20;0.20;;;;;;;;;;5004533;28;20237;-64
2023/03/08 06:07:27;;;;;;;0.20;0.20;;;;;;;;;;4993623;28;20306;-65
2023/03/08 06:09:54;;;;;;;0.20;0.20;;;;;;;;;;5004801;28;20280;-64
2023/03/08 06:12:21;;;;;;;0.27;0.27;;;;;;;;;;4993634;28;20266;-65
2023/03/08 06:14:47;;;;;;;0.20;0.20;;;;;;;;;;5004558;28;20228;-64
2023/03/08 06:17:13;;;;;;;0.20;0.20;;;;;;;;;;4993462;28;20309;-65
2023/03/08 06:19:40;;;;;;;0.20;0.20;;;;;;;;;;5004613;28;20241;-65
2023/03/08 06:22:06;;;;;;;0.20;0.20;;;;;;;;;;4993378;28;20244;-65
2023/03/08 06:24:34;;;;;;;0.20;0.20;;;;;;;;;;5004258;28;20271;-65
2023/03/08 06:27:01;;;;;;;0.20;0.20;;;;;;;;;;4993524;28;20516;-65
2023/03/08 06:29:27;;;;;;;0.20;0.20;;;;;;;;;;5004418;28;20445;-65
2023/03/08 06:31:53;;;;;;;0.20;0.20;;;;;;;;;;4993257;28;20270;-65
2023/03/08 06:34:20;;;;;;;0.20;0.20;;;;;;;;;;5003957;28;20274;-65
2023/03/08 06:36:46;;;;;;;0.20;0.20;;;;;;;;;;4993445;28;20307;-65
2023/03/08 06:39:13;;;;;;;0.20;0.20;;;;;;;;;;5003739;28;20275;-65
2023/03/08 06:41:41;;;;;;;0.20;0.20;;;;;;;;;;4993247;28;20253;-63
2023/03/08 06:44:07;;;;;;;0.20;0.20;;;;;;;;;;5004025;28;20276;-63
2023/03/08 06:46:33;;;;;;;0.20;0.20;;;;;;;;;;4993468;28;20310;-64
2023/03/08 06:49:00;;;;;;;0.20;0.20;;;;;;;;;;5007354;28;20416;-64
2023/03/08 06:51:26;;;;;;;0.20;0.20;;;;;;;;;;5000010;28;20314;-64
2023/03/08 06:53:52;;;;;;;0.20;0.20;;;;;;;;;;5009927;28;20234;-65
2023/03/08 06:56:19;;;;;;;0.20;0.20;;;;;;;;;;4999751;28;20316;-64
2023/03/08 06:58:47;;;;;;;0.20;0.20;;;;;;;;;;5009926;28;20209;-64
2023/03/08 07:01:13;;;;;;;0.30;0.30;;;;;;;;;;5000284;28;20454;-66
2023/03/08 07:03:40;;;;;;;0.20;0.20;;;;;;;;;;5009838;28;20279;-64
2023/03/08 07:06:07;;;;;;;0.20;0.20;;;;;;;;;;5000305;28;20317;-64
2023/03/08 07:08:34;;;;;;;0.20;0.20;;;;;;;;;;5010077;28;20241;-68
2023/03/08 07:11:00;;;;;;;0.20;0.20;;;;;;;;;;4999889;28;20258;-67
2023/03/08 07:13:28;;;;;;;0.20;0.20;;;;;;;;;;5009793;28;20207;-72
2023/03/08 07:15:56;;;;;;;0.20;0.20;;;;;;;;;;5000253;28;20247;-65
2023/03/08 07:18:23;;;;;;;0.20;0.20;;;;;;;;;;5009908;28;20239;-65
2023/03/08 07:20:53;;;;;;;0.20;0.20;;;;;;;;;;5000099;28;20278;-65
2023/03/08 07:23:20;;;;;;;0.20;0.20;;;;;;;;;;5009500;28;20270;-66
2023/03/08 07:25:46;;;;;;;0.20;0.20;;;;;;;;;;5000622;28;20273;-66
2023/03/08 07:28:12;;;;;;;0.20;0.20;;;;;;;;;;5009429;28;20216;-66
2023/03/08 07:30:39;;;;;;;0.20;0.20;;;;;;;;;;5000457;28;20434;-65
2023/03/08 07:33:07;;;;;;;0.20;0.20;;;;;;;;;;5009412;28;20208;-66
2023/03/08 07:35:33;;;;;;;0.20;0.20;;;;;;;;;;4999855;28;20255;-66
2023/03/08 07:37:59;;;;;;;0.20;0.20;;;;;;;;;;5009557;28;20244;-65
2023/03/08 07:40:26;;;;;;;0.20;0.20;;;;;;;;;;5000234;28;20208;-66
2023/03/08 07:42:52;;;;;;;0.20;0.20;;;;;;;;;;5009128;28;20428;-66
2023/03/08 07:45:19;;;;;;;0.20;0.20;;;;;;;;;;5000430;28;20202;-66
2023/03/08 07:47:45;;;;;;;0.20;0.20;;;;;;;;;;5009506;28;20196;-66
2023/03/08 07:50:15;;;;;;;0.20;0.20;;;;;;;;;;5000455;28;20251;-68
2023/03/08 07:52:41;;;;;;;0.20;0.20;;;;;;;;;;5009299;28;20196;-67
2023/03/08 07:55:08;;;;;;;0.20;0.20;;;;;;;;;;5006342;28;20275;-67
2023/03/08 07:57:34;;;;;;;0.20;0.20;;;;;;;;;;5009089;28;20222;-67
2023/03/08 08:00:01;;;;;;;0.20;0.20;;;;;;;;;;5007832;28;20240;-67
2023/03/08 08:02:27;;;;;;;0.20;0.20;;;;;;;;;;4996044;28;20296;-67
2023/03/08 08:04:53;;;;;;;0.40;0.40;;;;;;;;;;5006898;28;20278;-67
2023/03/08 08:07:21;;;;;;;0.20;0.20;;;;;;;;;;4995811;28;20492;-66
2023/03/08 08:09:48;;;;;;;0.20;0.20;;;;;;;;;;5007050;28;20243;-67
2023/03/08 08:12:14;;;;;;;0.20;0.20;;;;;;;;;;4995816;28;20610;-67
2023/03/08 08:14:40;;;;;;;0.20;0.20;;;;;;;;;;5006636;28;20220;-67
2023/03/08 08:17:07;;;;;;;0.20;0.20;;;;;;;;;;4995665;28;20249;-67
2023/03/08 08:19:33;;;;;;;0.27;0.27;;;;;;;;;;5006763;28;20275;-66
2023/03/08 08:22:00;;;;;;;0.20;0.20;;;;;;;;;;4995666;28;20295;-66
2023/03/08 08:24:28;;;;;;;0.20;0.20;;;;;;;;;;5006377;28;20237;-68
2023/03/08 08:26:54;;;;;;;0.20;0.20;;;;;;;;;;4995728;28;20598;-73
2023/03/08 08:29:21;;;;;;;0.20;0.20;;;;;;;;;;5006184;28;20247;-73
2023/03/08 08:31:47;;;;;;;0.20;0.20;;;;;;;;;;4995628;28;20265;-73
2023/03/08 08:34:14;;;;;;;0.20;0.20;;;;;;;;;;5006178;28;20447;-73
2023/03/08 08:36:40;;;;;;;0.20;0.20;;;;;;;;;;4995562;28;20251;-72
2023/03/08 08:39:06;;;;;;;0.20;0.20;;;;;;;;;;5006034;28;20240;-73
2023/03/08 08:41:34;;;;;;;0.20;0.20;;;;;;;;;;4995604;28;20255;-73
2023/03/08 08:44:01;;;;;;;0.20;0.20;;;;;;;;;;5005867;28;20311;-73
2023/03/08 08:46:27;;;;;;;0.20;0.20;;;;;;;;;;4995331;28;20245;-74
2023/03/08 08:48:54;;;;;;;0.10;0.10;;;;;;;;;;5005746;28;20471;-73
2023/03/08 08:51:20;;;;;;;0.20;0.20;;;;;;;;;;4995332;28;20245;-73
2023/03/08 08:53:46;;;;;;;0.20;0.20;;;;;;;;;;5005419;28;20243;-73
2023/03/08 08:56:13;;;;;;;0.20;0.20;;;;;;;;;;4995196;28;20255;-73
2023/03/08 08:58:41;;;;;;;0.20;0.20;;;;;;;;;;5005540;28;20209;-74
2023/03/08 09:01:13;;;;;;;0.20;0.20;;;;;;;;;;4995585;28;20244;-73
2023/03/08 09:03:39;;;;;;;0.10;0.10;;;;;;;;;;5005422;28;20198;-73
2023/03/08 09:06:05;;;;;;;0.30;0.30;;;;;;;;;;4995445;28;20249;-75
2023/03/08 09:08:32;;;;;;;0.20;0.20;;;;;;;;;;5005323;28;20434;-73
2023/03/08 09:11:02;;;;;;;0.17;0.17;;;;;;;;;;4995294;28;20292;-73
2023/03/08 09:13:28;;;;;;;0.10;0.10;;;;;;;;;;5005143;28;20396;-73
2023/03/08 09:15:56;;;;;;;0.20;0.20;;;;;;;;;;4995318;28;20312;-73
2023/03/08 09:18:22;;;;;;;0.20;0.20;;;;;;;;;;5004651;28;20209;-74
2023/03/08 09:20:49;;;;;;;0.10;0.10;;;;;;;;;;4995419;28;20531;-73
2023/03/08 09:23:15;;;;;;;0.20;0.20;;;;;;;;;;5004884;28;20460;-73
2023/03/08 09:25:41;;;;;;;0.10;0.10;;;;;;;;;;4995405;28;20613;-73
2023/03/08 09:28:09;;;;;;;0.10;0.10;;;;;;;;;;5004744;28;20229;-74
2023/03/08 09:30:35;;;;;;;0.20;0.20;;;;;;;;;;4995433;28;20245;-73
2023/03/08 09:33:03;;;;;;;0.20;0.20;;;;;;;;;;5004588;28;20549;-73
2023/03/08 09:35:30;;;;;;;0.10;0.10;;;;;;;;;;4995289;28;20229;-73
2023/03/08 09:37:57;;;;;;;0.13;0.13;;;;;;;;;;5004376;28;20448;-75
2023/03/08 09:40:25;;;;;;;0.20;0.20;;;;;;;;;;4995302;28;20279;-71
2023/03/08 09:42:52;;;;;;;0.20;0.20;;;;;;;;;;5004272;28;20268;-70
2023/03/08 09:45:22;;;;;;;0.10;0.10;;;;;;;;;;4995174;28;20551;-70
2023/03/08 09:47:51;;;;;;;0.20;0.20;;;;;;;;;;5003931;28;20204;-70
2023/03/08 09:50:25;;;;;;;0.20;0.20;;;;;;;;;;4995164;28;20276;-69
2023/03/08 09:52:55;;;;;;;0.43;0.43;;;;;;;;;;5004015;28;20197;-58
2023/03/08 09:55:28;;;;;;;0.20;0.20;;;;;;;;;;4994523;28;20244;-60
2023/03/08 09:57:55;;;;;;;0.20;0.20;;;;;;;;;;5003716;28;20209;-59
2023/03/08 10:00:23;;;;;;;0.20;0.20;;;;;;;;;;4994910;28;20217;-72
2023/03/08 10:02:54;;;;;;;0.20;0.20;;;;;;;;;;5003971;28;20391;-75
2023/03/08 10:05:24;;;;;;;0.20;0.20;;;;;;;;;;4994829;28;20235;-73
2023/03/08 10:07:55;;;;;;;0.20;0.20;;;;;;;;;;5003911;28;20208;-74
2023/03/08 10:10:39;;;;;;;0.20;0.20;;;;;;;;;;4994885;28;20500;-73
2023/03/08 10:13:19;;;;;;;0.20;0.20;;;;;;;;;;5003417;28;20208;-73
2023/03/08 10:15:48;;;;;;;0.20;0.20;;;;;;;;;;4994175;28;20244;-73
2023/03/08 10:18:17;;;;;;;0.20;0.20;;;;;;;;;;5003863;28;20279;-73
2023/03/08 10:20:45;;;;;;;0.20;0.20;;;;;;;;;;4994414;28;20245;-72
2023/03/08 10:23:13;;;;;;;0.20;0.20;;;;;;;;;;5003243;28;20412;-73
2023/03/08 10:25:40;;;;;;;0.20;0.20;;;;;;;;;;4994588;28;20534;-72
2023/03/08 10:28:11;;;;;;;0.20;0.20;;;;;;;;;;5003603;28;20241;-73
2023/03/08 10:30:40;;;;;;;0.20;0.20;;;;;;;;;;4994059;28;20248;-72
2023/03/08 10:33:08;;;;;;;0.23;0.23;;;;;;;;;;5003396;28;20197;-72
2023/03/08 10:35:36;;;;;;;0.20;0.20;;;;;;;;;;4994359;28;20262;-72
2023/03/08 10:38:05;;;;;;;0.30;0.30;;;;;;;;;;5003312;28;20208;-72
2023/03/08 10:40:32;;;;;;;0.20;0.20;;;;;;;;;;4994020;28;20243;-72
2023/03/08 10:43:02;;;;;;;0.20;0.20;;;;;;;;;;5003454;28;20458;-72
2023/03/08 10:45:29;;;;;;;0.20;0.20;;;;;;;;;;4994283;28;20437;-71
2023/03/08 10:47:56;;;;;;;0.10;0.10;;;;;;;;;;5002977;28;20211;-72
2023/03/08 10:50:24;;;;;;;0.20;0.20;;;;;;;;;;4994226;28;20442;-72
2023/03/08 10:52:50;;;;;;;0.20;0.20;;;;;;;;;;5003407;28;20265;-71
2023/03/08 10:55:19;;;;;;;0.20;0.20;;;;;;;;;;4993822;28;20312;-72
2023/03/08 10:57:49;;;;;;;0.20;0.20;;;;;;;;;;5003147;28;20586;-72
2023/03/08 11:00:24;;;;;;;0.20;0.20;;;;;;;;;;4994142;28;20209;-72
2023/03/08 11:03:01;;;;;;;0.20;0.20;;;;;;;;;;5003207;28;20294;-72
2023/03/08 11:05:27;;;;;;;0.30;0.30;;;;;;;;;;4994180;28;20242;-71
2023/03/08 11:07:55;;;;;;;0.20;0.20;;;;;;;;;;5002853;28;20268;-72
2023/03/08 11:10:25;;;;;;;0.20;0.20;;;;;;;;;;4994012;28;20358;-71
2023/03/08 11:13:00;;;;;;;0.20;0.20;;;;;;;;;;5003192;28;20197;-73
2023/03/08 11:15:29;;;;;;;0.10;0.10;;;;;;;;;;4994191;28;20297;-73
2023/03/08 11:17:56;;;;;;;0.10;0.10;;;;;;;;;;5003161;28;20282;-72
2023/03/08 11:20:26;;;;;;;0.20;0.20;;;;;;;;;;4993892;28;20236;-73
2023/03/08 11:23:02;;;;;;;0.20;0.20;;;;;;;;;;5002829;28;20198;-73
2023/03/08 11:25:36;;;;;;;0.20;0.20;;;;;;;;;;4993909;28;20251;-72
2023/03/08 11:28:17;;;;;;;0.20;0.20;;;;;;;;;;5002847;28;20380;-72
2023/03/08 11:30:49;;;;;;;0.20;0.20;;;;;;;;;;4990421;28;20249;-72
2023/03/08 11:33:30;;;;;;;0.20;0.20;;;;;;;;;;5003174;28;20237;-72
2023/03/08 11:36:01;;;;;;;0.20;0.20;;;;;;;;;;4995061;28;20316;-72
2023/03/08 11:38:28;;;;;;;0.20;0.20;;;;;;;;;;5006716;28;20197;-73
2023/03/08 11:41:01;;;;;;;0.20;0.20;;;;;;;;;;4997182;28;20275;-73
2023/03/08 11:43:42;;;;;;;0.10;0.10;;;;;;;;;;5006918;28;20233;-72
2023/03/08 11:46:11;;;;;;;0.20;0.20;;;;;;;;;;4993724;28;20267;-73
2023/03/08 11:48:44;;;;;;;0.20;0.20;;;;;;;;;;5006442;28;20273;-74
2023/03/08 11:51:14;;;;;;;0.20;0.20;;;;;;;;;;4996841;28;20244;-74
2023/03/08 11:53:46;;;;;;;0.20;0.20;;;;;;;;;;5006984;28;20320;-72
2023/03/08 11:56:19;;;;;;;0.17;0.17;;;;;;;;;;4996291;28;20263;-73
2023/03/08 11:58:47;;;;;;;0.20;0.20;;;;;;;;;;5006813;28;20228;-73
2023/03/08 12:01:16;;;;;;;0.20;0.20;;;;;;;;;;4996673;28;20257;-73
2023/03/08 12:03:44;;;;;;;0.20;0.20;;;;;;;;;;5006727;28;20457;-72
2023/03/08 12:06:13;;;;;;;0.20;0.20;;;;;;;;;;4996585;28;20576;-72
2023/03/08 12:08:42;;;;;;;0.20;0.20;;;;;;;;;;5006298;28;20240;-74
2023/03/08 12:11:11;;;;;;;0.20;0.20;;;;;;;;;;4996484;28;20264;-73
2023/03/08 12:13:41;;;;;;;0.10;0.10;;;;;;;;;;5006091;28;20225;-71
2023/03/08 12:16:10;;;;;;;0.20;0.20;;;;;;;;;;4996352;28;20520;-72
2023/03/08 12:18:40;;;;;;;0.20;0.20;;;;;;;;;;5006289;28;20217;-71
2023/03/08 12:21:12;;;;;;;0.20;0.20;;;;;;;;;;4996445;28;20505;-71
2023/03/08 12:23:42;;;;;;;0.20;0.20;;;;;;;;;;5006193;28;20232;-72
2023/03/08 12:26:10;;;;;;;0.20;0.20;;;;;;;;;;4996180;28;20481;-72
2023/03/08 12:28:40;;;;;;;0.20;0.20;;;;;;;;;;5005848;28;20198;-72
2023/03/08 12:31:18;;;;;;;0.20;0.20;;;;;;;;;;4996186;28;20521;-72
2023/03/08 12:33:48;;;;;;;0.20;0.20;;;;;;;;;;5005853;28;20200;-72
2023/03/08 12:36:17;;;;;;;0.20;0.20;;;;;;;;;;4995309;28;20256;-72
2023/03/08 12:38:47;;;;;;;0.20;0.20;;;;;;;;;;5005602;28;20206;-73
2023/03/08 12:41:22;;;;;;;0.20;0.20;;;;;;;;;;4995840;28;20242;-72
2023/03/08 12:43:58;;;;;;;0.20;0.20;;;;;;;;;;5005905;28;20236;-74
2023/03/08 12:46:25;;;;;;;0.20;0.20;;;;;;;;;;4995194;28;20237;-72
2023/03/08 12:48:52;;;;;;;0.10;0.10;;;;;;;;;;5005533;28;20236;-73
2023/03/08 12:51:25;;;;;;;0.20;0.20;;;;;;;;;;4995489;28;20493;-72
2023/03/08 12:53:57;;;;;;;0.20;0.20;;;;;;;;;;5005870;28;20379;-73
2023/03/08 12:56:25;;;;;;;0.20;0.20;;;;;;;;;;4995069;28;20271;-73
2023/03/08 12:58:53;;;;;;;0.20;0.20;;;;;;;;;;5005438;28;20209;-75
2023/03/08 13:01:26;;;;;;;0.20;0.20;;;;;;;;;;4995566;28;20249;-75
2023/03/08 13:03:54;;;;;;;0.20;0.20;;;;;;;;;;5005295;28;20204;-75
2023/03/08 13:06:35;;;;;;;0.10;0.10;;;;;;;;;;4995140;28;20251;-75
2023/03/08 13:09:05;;;;;;;0.10;0.10;;;;;;;;;;5005226;28;20237;-76
2023/03/08 13:11:38;;;;;;;0.20;0.20;;;;;;;;;;4995126;28;20321;-75
2023/03/08 13:14:04;;;;;;;0.17;0.17;;;;;;;;;;5005523;28;20486;-74
2023/03/08 13:16:32;;;;;;;0.20;0.20;;;;;;;;;;4994850;28;20322;-75
2023/03/08 13:19:18;;;;;;;0.20;0.20;;;;;;;;;;5005251;28;20284;-75
2023/03/08 13:21:48;;;;;;;0.20;0.20;;;;;;;;;;4994723;28;20484;-74
2023/03/08 13:24:16;;;;;;;0.20;0.20;;;;;;;;;;5004975;28;20228;-75
2023/03/08 13:26:49;;;;;;;0.20;0.20;;;;;;;;;;4994556;28;20491;-75
2023/03/08 13:29:16;;;;;;;0.10;0.10;;;;;;;;;;5004963;28;20246;-75
2023/03/08 13:31:44;;;;;;;0.10;0.10;;;;;;;;;;4994534;28;20260;-75
2023/03/08 13:34:25;;;;;;;0.20;0.20;;;;;;;;;;5004950;28;20209;-75
2023/03/08 13:36:52;;;;;;;0.20;0.20;;;;;;;;;;4994157;28;20241;-75
2023/03/08 13:39:19;;;;;;;0.20;0.20;;;;;;;;;;5004907;28;20208;-74
2023/03/08 13:41:47;;;;;;;0.20;0.20;;;;;;;;;;4994152;28;20465;-75
2023/03/08 13:44:15;;;;;;;0.10;0.10;;;;;;;;;;5004655;28;20250;-74
2023/03/08 13:46:41;;;;;;;0.10;0.10;;;;;;;;;;4994254;28;20592;-75
2023/03/08 13:49:13;;;;;;;0.20;0.20;;;;;;;;;;5004768;28;20205;-74
2023/03/08 13:51:42;;;;;;;0.10;0.10;;;;;;;;;;4994200;28;20260;-75
2023/03/08 13:54:14;;;;;;;0.13;0.13;;;;;;;;;;5004335;28;20237;-75
2023/03/08 13:56:40;;;;;;;0.20;0.20;;;;;;;;;;4993730;28;20487;-75
2023/03/08 13:59:16;;;;;;;0.10;0.10;;;;;;;;;;5003495;28;20205;-75
2023/03/08 14:01:46;;;;;;;0.10;0.10;;;;;;;;;;4994051;28;20253;-75
2023/03/08 14:04:16;;;;;;;0.10;0.10;;;;;;;;;;5004766;28;20249;-75
2023/03/08 14:06:48;;;;;;;0.20;0.20;;;;;;;;;;4993748;28;20238;-75
2023/03/08 14:09:14;;;;;;;0.10;0.10;;;;;;;;;;5004403;28;20252;-75
2023/03/08 14:11:41;;;;;;;0.10;0.10;;;;;;;;;;4993782;28;20248;-75
2023/03/08 14:14:14;;;;;;;0.17;0.17;;;;;;;;;;5004426;28;20529;-75
2023/03/08 14:16:42;;;;;;;0.20;0.20;;;;;;;;;;4993655;28;20351;-75
2023/03/08 14:19:09;;;;;;;0.20;0.20;;;;;;;;;;5004324;28;20205;-75
2023/03/08 14:21:36;;;;;;;0.20;0.20;;;;;;;;;;4993532;28;20264;-75
2023/03/08 14:24:05;;;;;;;0.20;0.20;;;;;;;;;;5003894;28;20201;-74
2023/03/08 14:26:32;;;;;;;0.20;0.20;;;;;;;;;;4993629;28;20252;-75
2023/03/08 14:29:13;;;;;;;0.17;0.17;;;;;;;;;;5003916;28;20532;-75
2023/03/08 14:31:40;;;;;;;0.10;0.10;;;;;;;;;;4993412;28;20565;-75
2023/03/08 14:34:17;;;;;;;0.27;0.27;;;;;;;;;;5003748;28;20206;-75
2023/03/08 14:36:46;;;;;;;0.20;0.20;;;;;;;;;;4993308;28;20353;-76
2023/03/08 14:39:18;;;;;;;0.20;0.20;;;;;;;;;;5003980;28;20341;-75
2023/03/08 14:41:44;;;;;;;0.17;0.17;;;;;;;;;;4993563;28;20288;-76
2023/03/08 14:44:17;;;;;;;0.20;0.20;;;;;;;;;;5003856;28;20206;-76
2023/03/08 14:46:43;;;;;;;0.20;0.20;;;;;;;;;;4993456;28;20312;-75
2023/03/08 14:49:19;;;;;;;0.10;0.10;;;;;;;;;;5003970;28;20236;-75